SLET/SRZ METAR and TAF weather

Enter ICAO airport designator
Station Type Date Time Source
SLET METAR 2022/06/28 15:00 UTC NOAA

SLET 281500Z 16014KT 9999 BKN020 BKN070 20/13 Q1018


Station Type Date Time Source
SLET Decoded METAR 2022/06/28 15:00 UTC NOAA

Santa Cruz / El Trompillo, Bolivia (SLET) 17-48S 063-11W 414M
Jun 28, 2022 - 11:00 AM EDT / 2022.06.28 1500 UTC
Wind: from the SSE (160 degrees) at 16 MPH (14 KT):0
Visibility: greater than 7 mile(s):0
Sky conditions: mostly cloudy
Temperature: 68 F (20 C)
Dew Point: 55 F (13 C)
Relative Humidity: 64%
Pressure (altimeter): 30.06 in. Hg (1018 hPa)
ob: SLET 281500Z 16014KT 9999 BKN020 BKN070 20/13 Q1018
cycle: 15

Station Type Date Time Source
SLET TAF 2022/06/28 12:41 UTC NOAA

TAF SLET 281000Z 2812/2912 VRB02KT 9999 BKN017 TX27/2818Z TN13/2910Z
BECMG 2819/2822 18012G25KT
BECMG 2823/2902 17014KT
BECMG 2908/2911 15005KT FEW023

Example: see airport list